createdAt,value
2023-01-11T00:10:03.707Z,8.00
2023-01-11T00:16:44.729Z,6.90
2023-01-11T00:37:09.686Z,6.30
2023-01-11T00:40:50.615Z,7.20
2023-01-11T00:51:35.646Z,6.70
2023-01-11T01:01:31.672Z,5.60
2023-01-11T01:05:28.664Z,5.80
2023-01-11T01:14:16.658Z,5.60
2023-01-11T01:18:00.698Z,4.80
2023-01-11T01:32:20.664Z,6.40
2023-01-11T01:36:15.507Z,6.40
2023-01-11T01:42:38.652Z,6.80
2023-01-11T01:46:11.619Z,6.80
2023-01-11T01:59:17.718Z,7.20
2023-01-11T02:01:47.662Z,7.70
2023-01-11T02:04:38.259Z,7.70
2023-01-11T02:07:13.603Z,7.60
2023-01-11T02:09:55.428Z,8.00
2023-01-11T02:12:27.295Z,7.40
2023-01-11T02:14:59.504Z,8.30
2023-01-11T02:17:27.530Z,8.00
2023-01-11T02:20:34.928Z,7.90
2023-01-11T02:23:25.024Z,7.30
2023-01-11T02:26:15.375Z,7.40
2023-01-11T02:28:55.941Z,7.70
2023-01-11T02:31:34.273Z,7.60
2023-01-11T02:34:26.600Z,8.10
2023-01-11T02:37:07.705Z,7.30
2023-01-11T02:39:57.898Z,7.10
2023-01-11T02:42:52.642Z,6.40
2023-01-11T02:45:47.582Z,6.50
2023-01-11T02:48:28.024Z,7.10
2023-01-11T02:51:26.612Z,7.10
2023-01-11T02:54:01.546Z,6.90
2023-01-11T02:56:35.261Z,7.80
2023-01-11T02:59:05.508Z,7.70
2023-01-11T03:01:33.420Z,7.00
2023-01-11T03:04:01.330Z,7.00
2023-01-11T03:06:34.655Z,7.70
2023-01-11T03:09:30.553Z,7.20
2023-01-11T03:12:29.284Z,7.20
2023-01-11T03:15:32.996Z,8.20
2023-01-11T03:18:27.124Z,7.80
2023-01-11T03:21:08.055Z,8.40
2023-01-11T03:23:51.795Z,9.00
2023-01-11T03:26:36.301Z,8.40
2023-01-11T03:29:21.023Z,7.60
2023-01-11T03:32:04.655Z,8.70
2023-01-11T03:34:46.755Z,8.10
2023-01-11T03:37:27.124Z,8.40
2023-01-11T03:40:04.242Z,7.90
2023-01-11T03:42:35.040Z,8.30
2023-01-11T03:45:04.340Z,7.50
2023-01-11T03:47:34.367Z,7.20
2023-01-11T03:50:07.264Z,7.20
2023-01-11T03:52:39.154Z,6.90
2023-01-11T03:55:10.934Z,7.20
2023-01-11T03:57:47.195Z,8.00
2023-01-11T04:00:16.514Z,7.70
2023-01-11T04:02:44.353Z,7.30
2023-01-11T04:05:12.290Z,7.70
2023-01-11T04:07:40.396Z,7.80
2023-01-11T04:10:09.215Z,8.00
2023-01-11T04:12:37.192Z,8.30
2023-01-11T04:15:05.784Z,7.90
2023-01-11T04:17:33.625Z,7.80
2023-01-11T04:20:01.469Z,8.60
2023-01-11T04:22:29.619Z,9.00
2023-01-11T04:24:57.553Z,8.40
2023-01-11T04:27:25.799Z,10.40
2023-01-11T04:29:54.000Z,9.80
2023-01-11T04:32:22.801Z,10.20
2023-01-11T04:34:50.660Z,10.40
2023-01-11T04:37:18.640Z,11.20
2023-01-11T04:39:48.155Z,10.40
2023-01-11T04:42:18.998Z,11.50
2023-01-11T04:44:49.723Z,10.90
2023-01-11T04:47:20.378Z,10.30
2023-01-11T04:49:48.753Z,10.50
2023-01-11T04:52:19.190Z,10.90
2023-01-11T04:54:48.881Z,10.20
2023-01-11T04:57:17.580Z,10.50
2023-01-11T04:59:47.011Z,11.10
2023-01-11T05:02:16.586Z,11.60
2023-01-11T05:04:44.989Z,9.80
2023-01-11T05:07:13.273Z,9.70
2023-01-11T05:09:42.024Z,9.70
2023-01-11T05:12:10.811Z,9.20
2023-01-11T05:14:39.093Z,9.90
2023-01-11T05:17:07.309Z,8.60
2023-01-11T05:19:35.651Z,9.00
2023-01-11T05:22:03.871Z,8.10
2023-01-11T05:24:32.920Z,9.10
2023-01-11T05:27:00.990Z,9.70
2023-01-11T05:29:30.881Z,8.00
2023-01-11T05:32:05.257Z,8.70
2023-01-11T05:34:34.174Z,7.90
2023-01-11T05:37:02.723Z,9.30
2023-01-11T05:39:30.874Z,9.80
2023-01-11T05:42:01.734Z,9.60
2023-01-11T05:44:58.218Z,9.60
2023-01-11T05:47:28.284Z,5.80
2023-01-11T05:49:56.825Z,7.80
2023-01-11T05:52:25.736Z,6.40
2023-01-11T05:54:56.777Z,6.10
2023-01-11T05:57:28.161Z,6.00
2023-01-11T05:59:57.663Z,7.00
2023-01-11T06:02:30.059Z,7.60
2023-01-11T06:04:59.080Z,7.80
2023-01-11T06:07:29.014Z,8.20
2023-01-11T06:09:57.503Z,8.70
2023-01-11T06:12:29.863Z,9.60
2023-01-11T06:14:59.726Z,11.20
2023-01-11T06:17:30.622Z,10.40
2023-01-11T06:20:03.482Z,11.60
2023-01-11T06:22:32.019Z,9.50
2023-01-11T06:25:01.164Z,10.70
2023-01-11T06:27:30.161Z,10.30
2023-01-11T06:30:01.262Z,9.50
2023-01-11T06:35:31.072Z,7.70
2023-01-11T06:37:59.869Z,6.30
2023-01-11T06:40:29.722Z,5.60
2023-01-11T06:43:18.816Z,5.40
2023-01-11T06:45:47.391Z,5.70
2023-01-11T06:48:17.121Z,5.30
2023-01-11T06:50:50.633Z,5.90
2023-01-11T06:53:29.083Z,5.60
2023-01-11T06:55:58.787Z,5.90
2023-01-11T06:58:29.680Z,6.20
2023-01-11T07:01:01.836Z,9.00
2023-01-11T07:03:30.221Z,13.60
2023-01-11T07:05:58.725Z,12.00
2023-01-11T07:08:29.875Z,12.50
2023-01-11T07:11:00.559Z,9.80
2023-01-11T07:13:31.538Z,11.70
2023-01-11T07:16:07.614Z,8.20
2023-01-11T07:22:10.571Z,8.10
2023-01-11T07:24:51.879Z,8.10
2023-01-11T07:27:21.402Z,8.60
2023-01-11T07:30:20.554Z,7.20
2023-01-11T08:42:07.063Z,7.30
2023-01-11T08:48:57.336Z,7.00
2023-01-11T08:52:25.132Z,8.00
2023-01-11T08:55:22.127Z,10.80
2023-01-11T09:03:00.829Z,10.30
2023-01-11T09:09:48.809Z,9.60
2023-01-11T09:12:51.924Z,8.30
2023-01-11T09:22:53.088Z,12.60
2023-01-11T09:29:11.084Z,5.10
2023-01-11T09:35:05.283Z,3.60
2023-01-11T09:38:34.639Z,3.70
2023-01-11T09:42:20.133Z,4.50
2023-01-11T09:45:47.892Z,4.80
2023-01-11T09:53:24.038Z,4.90
2023-01-11T10:18:22.821Z,7.00
2023-01-11T10:19:37.730Z,6.10
2023-01-11T10:22:31.776Z,9.10
2023-01-11T10:25:27.151Z,6.00
2023-01-11T10:28:02.027Z,7.00
2023-01-11T10:30:59.281Z,6.70
2023-01-11T10:33:57.725Z,6.80
2023-01-11T10:36:50.363Z,7.20
2023-01-11T10:39:46.834Z,4.70
2023-01-11T10:42:21.942Z,4.20
2023-01-11T10:45:05.201Z,4.70
2023-01-11T10:48:01.540Z,6.10
2023-01-11T10:50:48.278Z,4.80
2023-01-11T10:53:25.824Z,8.00
2023-01-11T10:56:05.111Z,8.50
2023-01-11T10:59:03.929Z,7.90
2023-01-11T11:04:42.759Z,7.80
2023-01-11T11:07:45.366Z,8.40
2023-01-11T11:10:24.268Z,9.30
2023-01-11T11:13:12.380Z,11.30
2023-01-11T11:15:54.681Z,11.80
2023-01-11T11:18:30.462Z,11.40
2023-01-11T11:21:18.036Z,12.30
2023-01-11T11:26:32.697Z,11.50
2023-01-11T11:29:07.697Z,12.20
2023-01-11T11:31:43.106Z,13.00
2023-01-11T11:34:18.256Z,13.20
2023-01-11T11:36:49.160Z,13.50
2023-01-11T11:39:32.630Z,12.90
2023-01-11T11:42:16.003Z,12.00
2023-01-11T11:45:14.235Z,12.80
2023-01-11T11:48:22.456Z,12.60
2023-01-11T11:50:54.554Z,9.70
2023-01-11T11:54:01.157Z,11.10
2023-01-11T11:56:35.291Z,9.80
2023-01-11T11:59:33.344Z,10.30
2023-01-11T12:03:05.517Z,11.40
2023-01-11T12:06:09.571Z,10.90
2023-01-11T12:15:26.724Z,7.90
2023-01-11T12:18:26.958Z,7.60
2023-01-11T12:21:33.295Z,8.30
2023-01-11T12:25:32.867Z,11.50
2023-01-11T12:28:51.865Z,12.00
2023-01-11T12:31:43.900Z,11.00
2023-01-11T12:35:08.954Z,11.00
2023-01-11T12:38:06.577Z,9.00
2023-01-11T12:41:00.119Z,7.80
2023-01-11T12:43:48.511Z,7.40
2023-01-11T12:46:34.513Z,7.80
2023-01-11T12:49:23.350Z,5.40
2023-01-11T12:52:37.413Z,2.70
2023-01-11T12:55:43.687Z,0.90
2023-01-11T12:58:32.456Z,0.70
2023-01-11T13:01:18.932Z,0.60
2023-01-11T13:08:18.749Z,0.80
2023-01-11T13:11:09.816Z,1.10
2023-01-11T13:14:13.831Z,1.00
2023-01-11T13:17:40.463Z,0.70
2023-01-11T13:21:26.022Z,1.00
2023-01-11T13:24:58.393Z,0.90
2023-01-11T13:28:11.019Z,0.80
2023-01-11T13:35:02.716Z,1.10
2023-01-11T13:42:51.579Z,1.00
2023-01-11T13:49:54.383Z,1.30
2023-01-11T13:53:45.760Z,1.10
2023-01-11T13:57:34.613Z,1.00
2023-01-11T14:00:44.463Z,1.30
2023-01-11T14:03:32.940Z,0.90
2023-01-11T14:06:32.358Z,1.20
2023-01-11T14:09:31.661Z,1.70
2023-01-11T14:13:02.021Z,1.20
2023-01-11T14:16:05.607Z,1.50
2023-01-11T14:19:07.652Z,1.70
2023-01-11T14:22:04.035Z,1.30
2023-01-11T14:24:41.417Z,1.90
2023-01-11T14:27:33.307Z,2.00
2023-01-11T14:30:32.904Z,1.40
2023-01-11T14:33:30.611Z,1.00
2023-01-11T14:36:15.993Z,1.40
2023-01-11T14:39:14.311Z,1.30
2023-01-11T14:42:03.475Z,2.40
2023-01-11T14:45:03.353Z,2.90
2023-01-11T14:47:55.993Z,2.30
2023-01-11T14:50:44.255Z,2.10
2023-01-11T14:53:19.857Z,1.50
2023-01-11T14:55:49.583Z,1.70
2023-01-11T14:58:25.881Z,1.80
2023-01-11T15:01:16.237Z,1.70
2023-01-11T15:03:49.695Z,1.90
2023-01-11T15:06:21.600Z,3.20
2023-01-11T15:08:54.816Z,2.90
2023-01-11T15:11:31.759Z,2.80
2023-01-11T15:14:20.070Z,3.10
2023-01-11T15:17:06.767Z,3.30
2023-01-11T15:19:42.430Z,2.30
2023-01-11T15:22:33.278Z,2.40
2023-01-11T15:25:22.596Z,2.70
2023-01-11T15:27:57.471Z,2.30
2023-01-11T15:30:37.156Z,2.10
2023-01-11T15:33:37.498Z,2.00
2023-01-11T15:36:13.934Z,2.70
2023-01-11T15:39:02.691Z,2.30
2023-01-11T15:42:31.244Z,3.10
2023-01-11T15:45:27.813Z,5.10
2023-01-11T15:48:27.004Z,4.20
2023-01-11T15:51:19.672Z,3.80
2023-01-11T15:54:14.230Z,4.10
2023-01-11T15:57:03.582Z,3.20
2023-01-11T15:59:59.870Z,3.30
2023-01-11T16:03:11.907Z,5.10
2023-01-11T16:06:10.275Z,4.80
2023-01-11T16:09:05.604Z,4.70
2023-01-11T16:12:02.068Z,2.00
2023-01-11T16:15:20.118Z,2.30
2023-01-11T16:18:32.504Z,1.60
2023-01-11T16:21:14.421Z,1.90
2023-01-11T16:23:46.673Z,2.10
2023-01-11T16:26:41.043Z,2.00
2023-01-11T16:30:02.925Z,2.40
2023-01-11T16:33:51.271Z,1.40
2023-01-11T16:36:27.002Z,2.40
2023-01-11T16:39:10.467Z,3.40
2023-01-11T16:42:06.271Z,3.90
2023-01-11T16:45:12.773Z,4.90
2023-01-11T16:48:02.297Z,5.50
2023-01-11T16:50:32.523Z,3.70
2023-01-11T16:53:04.308Z,3.30
2023-01-11T16:55:43.106Z,3.60
2023-01-11T16:58:28.723Z,3.90
2023-01-11T17:01:23.581Z,3.40
2023-01-11T17:04:03.059Z,5.00
2023-01-11T17:06:36.010Z,3.10
2023-01-11T17:10:07.942Z,6.80
2023-01-11T17:12:53.434Z,8.20
2023-01-11T17:16:24.513Z,5.70
2023-01-11T17:18:54.384Z,2.70
2023-01-11T17:21:25.603Z,3.20
2023-01-11T17:24:03.169Z,2.10
2023-01-11T17:26:37.538Z,2.80
2023-01-11T17:29:06.077Z,2.60
2023-01-11T17:31:49.214Z,3.10
2023-01-11T17:34:27.365Z,2.50
2023-01-11T17:36:58.584Z,2.10
2023-01-11T17:40:03.196Z,2.30
2023-01-11T17:43:27.502Z,2.10
2023-01-11T17:46:18.652Z,5.80
2023-01-11T17:49:27.341Z,7.60
2023-01-11T17:52:54.078Z,10.10
2023-01-11T17:56:05.527Z,12.90
2023-01-11T17:59:36.282Z,6.90
2023-01-11T18:02:57.407Z,6.20
2023-01-11T18:07:06.714Z,6.40
2023-01-11T18:10:46.638Z,6.30
2023-01-11T18:14:32.261Z,5.90
2023-01-11T18:18:10.320Z,6.40
2023-01-11T18:22:01.920Z,5.60
2023-01-11T18:25:19.426Z,6.10
2023-01-11T18:29:50.831Z,4.70
2023-01-11T18:34:01.372Z,5.40
2023-01-11T18:38:21.847Z,5.60
2023-01-11T18:41:36.316Z,6.60
2023-01-11T18:44:41.728Z,2.90
2023-01-11T18:47:16.463Z,4.40
2023-01-11T18:49:45.180Z,3.60
2023-01-11T18:52:13.771Z,2.70
2023-01-11T18:54:42.963Z,3.20
2023-01-11T18:57:11.534Z,6.10
2023-01-11T19:00:20.385Z,5.40
2023-01-11T19:04:04.797Z,4.80
2023-01-11T19:07:44.571Z,5.60
2023-01-11T19:11:54.319Z,6.00
2023-01-11T19:16:56.341Z,5.10
2023-01-11T19:20:59.597Z,4.50
2023-01-11T19:36:52.292Z,4.10
2023-01-11T19:47:56.754Z,6.40
2023-01-11T20:02:52.380Z,7.70
2023-01-11T20:06:54.488Z,6.70
2023-01-11T20:10:08.992Z,6.90
2023-01-11T20:13:54.165Z,8.10
2023-01-11T20:23:00.199Z,7.50
2023-01-11T20:31:51.639Z,7.00
2023-01-11T20:35:26.614Z,8.00
2023-01-11T20:39:09.913Z,6.70
2023-01-11T20:43:13.011Z,6.60
2023-01-11T20:47:09.856Z,7.20
2023-01-11T20:50:34.965Z,6.80
2023-01-11T20:54:06.641Z,6.40
2023-01-11T20:57:33.586Z,5.90
2023-01-11T21:01:32.983Z,6.30
2023-01-11T21:05:03.664Z,6.30
2023-01-11T21:08:26.551Z,6.10
2023-01-11T21:12:02.050Z,5.80
2023-01-11T21:15:14.623Z,8.10
2023-01-11T21:18:51.195Z,9.80
2023-01-11T21:21:59.633Z,6.60
2023-01-11T21:25:34.747Z,7.00
2023-01-11T21:29:09.461Z,4.30
2023-01-11T21:36:34.618Z,4.70
2023-01-11T21:40:29.710Z,6.40
2023-01-11T21:44:38.599Z,7.30
2023-01-11T21:47:44.553Z,6.10
2023-01-11T21:55:26.889Z,5.60
2023-01-11T21:58:55.527Z,6.30
2023-01-11T22:02:45.105Z,6.60
2023-01-11T22:06:06.605Z,6.00
2023-01-11T22:09:53.402Z,7.10
2023-01-11T22:13:29.881Z,6.20
2023-01-11T22:16:53.573Z,6.10
2023-01-11T22:20:34.916Z,5.40
2023-01-11T22:24:22.586Z,6.10
2023-01-11T22:27:49.295Z,5.50
2023-01-11T22:31:29.886Z,5.00
2023-01-11T22:35:40.343Z,6.40
2023-01-11T22:39:04.864Z,4.00
2023-01-11T22:42:51.381Z,3.70
2023-01-11T22:46:22.517Z,4.00
2023-01-11T22:49:39.540Z,4.70
2023-01-11T22:53:08.319Z,4.00
2023-01-11T22:56:34.393Z,4.20
2023-01-11T23:00:08.873Z,5.20
2023-01-11T23:03:34.116Z,5.30
2023-01-11T23:07:25.749Z,5.80
2023-01-11T23:10:48.372Z,5.30
2023-01-11T23:14:14.596Z,7.40
2023-01-11T23:17:42.237Z,5.60
2023-01-11T23:21:21.179Z,6.50
2023-01-11T23:28:08.707Z,5.20
2023-01-11T23:31:40.927Z,7.80
2023-01-11T23:34:44.853Z,13.70
2023-01-11T23:38:21.830Z,7.70
2023-01-11T23:41:38.995Z,8.70
2023-01-11T23:44:53.542Z,5.40
2023-01-11T23:48:42.841Z,5.70
2023-01-11T23:52:26.602Z,5.40
2023-01-11T23:55:43.346Z,7.30
2023-01-11T23:59:06.772Z,7.30
